Pagina principală
METAR-TAF:

METAR-TAF

Aeroporturi :

Midway, Statele Unite ale Americii

Latitudine: 28-13N, longitudine: 177-22W, elevație: 4 m

Observații meteo curente

Raportul a fost făcut în urmă cu 49 de minute, la 01:56 UTC
Vânt 12 kt de la Sud-vest
Temperatură 24°C
Umiditate 74%
Presiune 1015 hPa
Vizibilitate: 8.0 km
Nori puțini la o înălțime de 2200 picior
Nori împrăștiați la o înălțime de 3500 picior
Nori fragmentați la o înălțime de 4300 picior
pâclă

METAR: PMDY 020156Z AUTO 23012KT 5SM HZ FEW022 SCT035 BKN043 24/19 A2997 RMK AO2 SLP146 T02440194

Ora: 16:45 (02:45 UTC)

Prognoză

Raportul a fost făcut în urmă cu 3 ore și 7 de minute, la 23:38 UTC
Prognoză valabilă de la 02 ora 00 UTC la 02 ora 24 UTC
Vânt 8 kt de la Sud-vest
Vizibilitate: 10 km
Nori împrăștiați la o înălțime de 3500 picior

TAF: PMDY 012338Z 0200/0224 23008KT P6SM SCT035

Observații și prognoze meteo pentru peste 4.000 de aeroporturi (rapoarte METAR și TAF).

Stațiile disponibile sunt reprezentate pe hartă prin puncte galbene și roșii.

Țineți indicatorul mouse-ului pe punctul dorit pentru a vedea denumirea stației.

Apoi, faceți clic pentru a vedea observațiile și prognozele meteorologice.

Pentru a schimba harta: Pentru mărire, faceți clic pe butoanele verzi cu cruce neagră; pentru micșorare, pe butonul verde cu o liniuță; pentru hărți învecinate, pe săgețile verzi.


METAR-TAF: